sensor_id;sensor_type;location;lat;lon;timestamp;P1;durP1;ratioP1;P2;durP2;ratioP2
53549;SDS011;67273;52.914;-0.982;2023-04-05T00:00:29;3.72;;;2.78;;
53549;SDS011;67273;52.914;-0.982;2023-04-05T00:02:56;5.05;;;2.60;;
53549;SDS011;67273;52.914;-0.982;2023-04-05T00:05:24;3.90;;;2.50;;
53549;SDS011;67273;52.914;-0.982;2023-04-05T00:07:58;3.83;;;2.70;;
53549;SDS011;67273;52.914;-0.982;2023-04-05T00:10:25;3.67;;;2.35;;
53549;SDS011;67273;52.914;-0.982;2023-04-05T00:12:53;3.17;;;2.45;;
53549;SDS011;67273;52.914;-0.982;2023-04-05T00:15:18;3.78;;;2.55;;
53549;SDS011;67273;52.914;-0.982;2023-04-05T00:17:44;3.15;;;2.30;;
53549;SDS011;67273;52.914;-0.982;2023-04-05T00:20:11;4.28;;;2.50;;
53549;SDS011;67273;52.914;-0.982;2023-04-05T00:22:37;4.10;;;2.70;;
53549;SDS011;67273;52.914;-0.982;2023-04-05T00:25:03;4.05;;;2.72;;
53549;SDS011;67273;52.914;-0.982;2023-04-05T00:27:29;3.55;;;2.50;;
53549;SDS011;67273;52.914;-0.982;2023-04-05T00:29:56;2.92;;;2.42;;
53549;SDS011;67273;52.914;-0.982;2023-04-05T00:32:22;3.53;;;2.45;;
53549;SDS011;67273;52.914;-0.982;2023-04-05T00:34:48;3.95;;;2.72;;
53549;SDS011;67273;52.914;-0.982;2023-04-05T00:37:14;3.22;;;2.40;;
53549;SDS011;67273;52.914;-0.982;2023-04-05T00:39:40;4.03;;;2.65;;
53549;SDS011;67273;52.914;-0.982;2023-04-05T00:42:06;3.40;;;2.30;;
53549;SDS011;67273;52.914;-0.982;2023-04-05T00:44:33;3.90;;;2.55;;
53549;SDS011;67273;52.914;-0.982;2023-04-05T00:47:00;3.35;;;2.25;;
53549;SDS011;67273;52.914;-0.982;2023-04-05T00:49:27;3.63;;;2.65;;
53549;SDS011;67273;52.914;-0.982;2023-04-05T00:51:53;4.05;;;2.50;;
53549;SDS011;67273;52.914;-0.982;2023-04-05T00:54:21;3.55;;;2.53;;
53549;SDS011;67273;52.914;-0.982;2023-04-05T00:56:46;3.35;;;2.50;;
53549;SDS011;67273;52.914;-0.982;2023-04-05T00:59:13;4.13;;;2.22;;
53549;SDS011;67273;52.914;-0.982;2023-04-05T01:01:39;4.97;;;2.72;;
53549;SDS011;67273;52.914;-0.982;2023-04-05T01:04:06;4.10;;;2.50;;
53549;SDS011;67273;52.914;-0.982;2023-04-05T01:06:38;3.00;;;2.40;;
53549;SDS011;67273;52.914;-0.982;2023-04-05T01:09:13;3.78;;;2.60;;
53549;SDS011;67273;52.914;-0.982;2023-04-05T01:11:48;2.95;;;2.25;;
53549;SDS011;67273;52.914;-0.982;2023-04-05T01:14:19;3.20;;;2.30;;
53549;SDS011;67273;52.914;-0.982;2023-04-05T01:16:45;3.40;;;2.30;;
53549;SDS011;67273;52.914;-0.982;2023-04-05T01:19:18;3.92;;;2.20;;
53549;SDS011;67273;52.914;-0.982;2023-04-05T01:22:02;4.22;;;2.40;;
53549;SDS011;67273;52.914;-0.982;2023-04-05T01:27:49;3.03;;;2.30;;
53549;SDS011;67273;52.914;-0.982;2023-04-05T01:30:42;3.53;;;2.40;;
53549;SDS011;67273;52.914;-0.982;2023-04-05T01:33:17;3.53;;;2.22;;
53549;SDS011;67273;52.914;-0.982;2023-04-05T01:35:51;2.92;;;2.30;;
53549;SDS011;67273;52.914;-0.982;2023-04-05T01:38:21;3.63;;;2.55;;
53549;SDS011;67273;52.914;-0.982;2023-04-05T01:40:49;3.78;;;2.55;;
53549;SDS011;67273;52.914;-0.982;2023-04-05T01:43:16;3.30;;;2.20;;
53549;SDS011;67273;52.914;-0.982;2023-04-05T01:45:44;3.70;;;2.33;;
53549;SDS011;67273;52.914;-0.982;2023-04-05T01:48:11;3.38;;;2.53;;
53549;SDS011;67273;52.914;-0.982;2023-04-05T01:50:38;3.22;;;2.20;;
53549;SDS011;67273;52.914;-0.982;2023-04-05T01:53:05;4.20;;;2.55;;
53549;SDS011;67273;52.914;-0.982;2023-04-05T01:55:31;3.30;;;2.33;;
53549;SDS011;67273;52.914;-0.982;2023-04-05T01:57:57;3.17;;;2.40;;
53549;SDS011;67273;52.914;-0.982;2023-04-05T02:00:25;3.08;;;2.20;;
53549;SDS011;67273;52.914;-0.982;2023-04-05T02:02:54;3.05;;;2.30;;
53549;SDS011;67273;52.914;-0.982;2023-04-05T02:05:25;4.13;;;2.30;;
53549;SDS011;67273;52.914;-0.982;2023-04-05T02:07:54;3.75;;;2.42;;
53549;SDS011;67273;52.914;-0.982;2023-04-05T02:10:21;3.58;;;2.30;;
53549;SDS011;67273;52.914;-0.982;2023-04-05T02:12:47;3.83;;;2.38;;
53549;SDS011;67273;52.914;-0.982;2023-04-05T02:15:13;3.33;;;2.35;;
53549;SDS011;67273;52.914;-0.982;2023-04-05T02:17:39;2.80;;;2.20;;
53549;SDS011;67273;52.914;-0.982;2023-04-05T02:20:13;3.63;;;2.22;;
53549;SDS011;67273;52.914;-0.982;2023-04-05T02:22:39;3.85;;;2.55;;
53549;SDS011;67273;52.914;-0.982;2023-04-05T02:25:06;3.30;;;2.40;;
53549;SDS011;67273;52.914;-0.982;2023-04-05T02:27:37;2.90;;;2.20;;
53549;SDS011;67273;52.914;-0.982;2023-04-05T02:30:07;3.53;;;2.67;;
53549;SDS011;67273;52.914;-0.982;2023-04-05T02:32:41;3.22;;;2.35;;
53549;SDS011;67273;52.914;-0.982;2023-04-05T02:35:15;3.83;;;2.47;;
53549;SDS011;67273;52.914;-0.982;2023-04-05T02:37:45;3.25;;;2.40;;
53549;SDS011;67273;52.914;-0.982;2023-04-05T02:40:14;3.10;;;2.17;;
53549;SDS011;67273;52.914;-0.982;2023-04-05T02:42:45;3.38;;;2.35;;
53549;SDS011;67273;52.914;-0.982;2023-04-05T02:45:13;3.40;;;2.15;;
53549;SDS011;67273;52.914;-0.982;2023-04-05T02:47:41;3.08;;;2.13;;
53549;SDS011;67273;52.914;-0.982;2023-04-05T02:50:10;3.90;;;2.35;;
53549;SDS011;67273;52.914;-0.982;2023-04-05T02:52:43;4.30;;;2.42;;
53549;SDS011;67273;52.914;-0.982;2023-04-05T02:55:12;4.43;;;2.63;;
53549;SDS011;67273;52.914;-0.982;2023-04-05T02:57:41;4.25;;;2.83;;
53549;SDS011;67273;52.914;-0.982;2023-04-05T03:00:24;4.10;;;2.53;;
53549;SDS011;67273;52.914;-0.982;2023-04-05T03:02:55;3.97;;;2.60;;
53549;SDS011;67273;52.914;-0.982;2023-04-05T03:05:22;3.10;;;2.38;;
53549;SDS011;67273;52.914;-0.982;2023-04-05T03:07:53;3.25;;;2.35;;
53549;SDS011;67273;52.914;-0.982;2023-04-05T03:10:25;3.78;;;2.22;;
53549;SDS011;67273;52.914;-0.982;2023-04-05T03:13:01;3.17;;;2.35;;
53549;SDS011;67273;52.914;-0.982;2023-04-05T03:15:27;4.40;;;2.50;;
53549;SDS011;67273;52.914;-0.982;2023-04-05T03:17:56;3.55;;;2.58;;
53549;SDS011;67273;52.914;-0.982;2023-04-05T03:20:24;3.20;;;2.40;;
53549;SDS011;67273;52.914;-0.982;2023-04-05T03:22:54;3.53;;;2.60;;
53549;SDS011;67273;52.914;-0.982;2023-04-05T03:25:23;3.17;;;2.42;;
53549;SDS011;67273;52.914;-0.982;2023-04-05T03:27:51;4.43;;;2.40;;
53549;SDS011;67273;52.914;-0.982;2023-04-05T03:30:18;3.22;;;2.40;;
53549;SDS011;67273;52.914;-0.982;2023-04-05T03:32:53;3.65;;;2.50;;
53549;SDS011;67273;52.914;-0.982;2023-04-05T03:35:39;3.65;;;2.30;;
53549;SDS011;67273;52.914;-0.982;2023-04-05T03:38:10;2.72;;;2.38;;
53549;SDS011;67273;52.914;-0.982;2023-04-05T03:40:44;4.70;;;2.67;;
53549;SDS011;67273;52.914;-0.982;2023-04-05T03:43:10;3.00;;;2.20;;
53549;SDS011;67273;52.914;-0.982;2023-04-05T03:45:36;3.78;;;2.05;;
53549;SDS011;67273;52.914;-0.982;2023-04-05T03:48:03;3.83;;;2.45;;
53549;SDS011;67273;52.914;-0.982;2023-04-05T03:50:30;4.55;;;2.60;;
53549;SDS011;67273;52.914;-0.982;2023-04-05T03:52:56;2.70;;;2.30;;
53549;SDS011;67273;52.914;-0.982;2023-04-05T03:55:24;3.25;;;2.10;;
53549;SDS011;67273;52.914;-0.982;2023-04-05T03:57:51;2.97;;;2.20;;
53549;SDS011;67273;52.914;-0.982;2023-04-05T04:00:28;3.50;;;2.38;;
53549;SDS011;67273;52.914;-0.982;2023-04-05T04:03:09;3.42;;;2.25;;
53549;SDS011;67273;52.914;-0.982;2023-04-05T04:05:39;2.97;;;2.20;;
53549;SDS011;67273;52.914;-0.982;2023-04-05T04:08:05;4.97;;;2.30;;
53549;SDS011;67273;52.914;-0.982;2023-04-05T04:10:33;2.72;;;2.30;;
53549;SDS011;67273;52.914;-0.982;2023-04-05T04:12:59;2.67;;;2.13;;
53549;SDS011;67273;52.914;-0.982;2023-04-05T04:15:28;3.15;;;2.20;;
53549;SDS011;67273;52.914;-0.982;2023-04-05T04:18:08;3.50;;;2.60;;
53549;SDS011;67273;52.914;-0.982;2023-04-05T04:20:54;2.88;;;2.35;;
53549;SDS011;67273;52.914;-0.982;2023-04-05T04:23:35;2.78;;;2.08;;
53549;SDS011;67273;52.914;-0.982;2023-04-05T04:26:22;3.55;;;2.63;;
53549;SDS011;67273;52.914;-0.982;2023-04-05T04:29:13;2.60;;;1.98;;
53549;SDS011;67273;52.914;-0.982;2023-04-05T04:31:58;4.10;;;2.45;;
53549;SDS011;67273;52.914;-0.982;2023-04-05T04:34:48;3.15;;;2.22;;
53549;SDS011;67273;52.914;-0.982;2023-04-05T04:37:32;2.90;;;2.10;;
53549;SDS011;67273;52.914;-0.982;2023-04-05T04:40:16;3.05;;;2.10;;
53549;SDS011;67273;52.914;-0.982;2023-04-05T04:42:58;3.45;;;2.40;;
53549;SDS011;67273;52.914;-0.982;2023-04-05T04:45:47;3.55;;;2.40;;
53549;SDS011;67273;52.914;-0.982;2023-04-05T04:48:33;3.10;;;2.17;;
53549;SDS011;67273;52.914;-0.982;2023-04-05T04:51:36;3.55;;;2.42;;
53549;SDS011;67273;52.914;-0.982;2023-04-05T04:54:03;3.70;;;2.38;;
53549;SDS011;67273;52.914;-0.982;2023-04-05T04:56:28;3.50;;;2.38;;
53549;SDS011;67273;52.914;-0.982;2023-04-05T04:58:58;3.38;;;2.22;;
53549;SDS011;67273;52.914;-0.982;2023-04-05T05:01:24;3.25;;;2.30;;
53549;SDS011;67273;52.914;-0.982;2023-04-05T05:03:50;3.75;;;2.60;;
53549;SDS011;67273;52.914;-0.982;2023-04-05T05:06:24;3.58;;;2.50;;
53549;SDS011;67273;52.914;-0.982;2023-04-05T05:08:52;3.53;;;2.38;;
53549;SDS011;67273;52.914;-0.982;2023-04-05T05:11:18;5.10;;;2.60;;
53549;SDS011;67273;52.914;-0.982;2023-04-05T05:13:46;3.80;;;2.15;;
53549;SDS011;67273;52.914;-0.982;2023-04-05T05:16:23;4.00;;;2.30;;
53549;SDS011;67273;52.914;-0.982;2023-04-05T05:18:51;3.83;;;2.55;;
53549;SDS011;67273;52.914;-0.982;2023-04-05T05:21:18;3.88;;;2.60;;
53549;SDS011;67273;52.914;-0.982;2023-04-05T05:23:50;3.10;;;2.10;;
53549;SDS011;67273;52.914;-0.982;2023-04-05T05:26:18;3.00;;;2.15;;
53549;SDS011;67273;52.914;-0.982;2023-04-05T05:28:46;3.83;;;2.38;;
53549;SDS011;67273;52.914;-0.982;2023-04-05T05:31:13;2.88;;;2.10;;
53549;SDS011;67273;52.914;-0.982;2023-04-05T05:33:43;3.35;;;2.33;;
53549;SDS011;67273;52.914;-0.982;2023-04-05T05:36:13;2.72;;;2.15;;
53549;SDS011;67273;52.914;-0.982;2023-04-05T05:38:41;3.42;;;2.17;;
53549;SDS011;67273;52.914;-0.982;2023-04-05T05:41:10;3.53;;;2.20;;
53549;SDS011;67273;52.914;-0.982;2023-04-05T05:43:38;3.40;;;2.20;;
53549;SDS011;67273;52.914;-0.982;2023-04-05T05:46:07;3.25;;;2.10;;
53549;SDS011;67273;52.914;-0.982;2023-04-05T05:48:36;2.90;;;2.30;;
53549;SDS011;67273;52.914;-0.982;2023-04-05T05:51:06;3.38;;;2.20;;
53549;SDS011;67273;52.914;-0.982;2023-04-05T05:53:38;2.40;;;2.03;;
53549;SDS011;67273;52.914;-0.982;2023-04-05T05:56:06;2.90;;;2.10;;
53549;SDS011;67273;52.914;-0.982;2023-04-05T05:58:32;2.75;;;1.90;;
53549;SDS011;67273;52.914;-0.982;2023-04-05T06:00:58;2.75;;;2.00;;
53549;SDS011;67273;52.914;-0.982;2023-04-05T06:03:24;2.20;;;2.00;;
53549;SDS011;67273;52.914;-0.982;2023-04-05T06:05:50;3.17;;;2.38;;
53549;SDS011;67273;52.914;-0.982;2023-04-05T06:08:17;2.80;;;2.08;;
53549;SDS011;67273;52.914;-0.982;2023-04-05T06:10:43;2.88;;;2.08;;
53549;SDS011;67273;52.914;-0.982;2023-04-05T06:13:09;2.90;;;2.10;;
53549;SDS011;67273;52.914;-0.982;2023-04-05T06:15:35;2.63;;;1.90;;
53549;SDS011;67273;52.914;-0.982;2023-04-05T06:18:03;3.28;;;2.08;;
53549;SDS011;67273;52.914;-0.982;2023-04-05T06:20:30;3.08;;;2.03;;
53549;SDS011;67273;52.914;-0.982;2023-04-05T06:22:58;3.00;;;2.10;;
53549;SDS011;67273;52.914;-0.982;2023-04-05T06:25:26;2.75;;;2.00;;
53549;SDS011;67273;52.914;-0.982;2023-04-05T06:27:52;3.72;;;2.10;;
53549;SDS011;67273;52.914;-0.982;2023-04-05T06:30:18;2.15;;;1.95;;
53549;SDS011;67273;52.914;-0.982;2023-04-05T06:32:44;2.40;;;1.85;;
53549;SDS011;67273;52.914;-0.982;2023-04-05T06:35:13;2.58;;;1.90;;
53549;SDS011;67273;52.914;-0.982;2023-04-05T06:37:39;2.85;;;2.00;;
53549;SDS011;67273;52.914;-0.982;2023-04-05T06:40:06;3.50;;;2.00;;
53549;SDS011;67273;52.914;-0.982;2023-04-05T06:42:34;3.40;;;2.22;;
53549;SDS011;67273;52.914;-0.982;2023-04-05T06:45:03;3.78;;;2.20;;
53549;SDS011;67273;52.914;-0.982;2023-04-05T06:47:31;2.65;;;2.00;;
53549;SDS011;67273;52.914;-0.982;2023-04-05T06:49:58;4.32;;;2.33;;
53549;SDS011;67273;52.914;-0.982;2023-04-05T06:52:23;3.38;;;2.30;;
53549;SDS011;67273;52.914;-0.982;2023-04-05T06:54:49;4.05;;;2.25;;
53549;SDS011;67273;52.914;-0.982;2023-04-05T06:57:15;3.75;;;2.10;;
53549;SDS011;67273;52.914;-0.982;2023-04-05T06:59:42;3.13;;;2.00;;
53549;SDS011;67273;52.914;-0.982;2023-04-05T07:02:08;3.15;;;2.17;;
53549;SDS011;67273;52.914;-0.982;2023-04-05T07:04:36;3.33;;;2.20;;
53549;SDS011;67273;52.914;-0.982;2023-04-05T07:07:03;3.53;;;2.05;;
53549;SDS011;67273;52.914;-0.982;2023-04-05T07:09:30;2.45;;;2.10;;
53549;SDS011;67273;52.914;-0.982;2023-04-05T07:11:56;2.90;;;2.22;;
53549;SDS011;67273;52.914;-0.982;2023-04-05T07:14:22;3.63;;;2.13;;
53549;SDS011;67273;52.914;-0.982;2023-04-05T07:16:49;4.63;;;2.60;;
53549;SDS011;67273;52.914;-0.982;2023-04-05T07:19:16;3.65;;;2.20;;
53549;SDS011;67273;52.914;-0.982;2023-04-05T07:21:43;3.42;;;1.90;;
53549;SDS011;67273;52.914;-0.982;2023-04-05T07:24:09;2.97;;;2.00;;
53549;SDS011;67273;52.914;-0.982;2023-04-05T07:26:35;3.85;;;2.25;;
53549;SDS011;67273;52.914;-0.982;2023-04-05T07:29:01;2.78;;;1.88;;
53549;SDS011;67273;52.914;-0.982;2023-04-05T07:31:28;3.42;;;1.98;;
53549;SDS011;67273;52.914;-0.982;2023-04-05T07:33:58;3.60;;;1.92;;
53549;SDS011;67273;52.914;-0.982;2023-04-05T07:36:26;3.50;;;2.00;;
53549;SDS011;67273;52.914;-0.982;2023-04-05T07:38:52;3.55;;;2.38;;
53549;SDS011;67273;52.914;-0.982;2023-04-05T07:41:18;3.45;;;2.10;;
53549;SDS011;67273;52.914;-0.982;2023-04-05T07:43:45;3.35;;;2.00;;
53549;SDS011;67273;52.914;-0.982;2023-04-05T07:46:11;3.28;;;1.95;;
53549;SDS011;67273;52.914;-0.982;2023-04-05T07:48:37;2.75;;;1.73;;
53549;SDS011;67273;52.914;-0.982;2023-04-05T07:51:05;4.07;;;1.70;;
53549;SDS011;67273;52.914;-0.982;2023-04-05T07:53:32;4.22;;;2.17;;
53549;SDS011;67273;52.914;-0.982;2023-04-05T07:56:01;3.17;;;1.90;;
53549;SDS011;67273;52.914;-0.982;2023-04-05T07:58:28;2.70;;;2.10;;
53549;SDS011;67273;52.914;-0.982;2023-04-05T08:00:58;4.05;;;2.08;;
53549;SDS011;67273;52.914;-0.982;2023-04-05T08:03:24;2.50;;;1.80;;
53549;SDS011;67273;52.914;-0.982;2023-04-05T08:05:50;2.75;;;1.92;;
53549;SDS011;67273;52.914;-0.982;2023-04-05T08:08:18;3.33;;;2.10;;
53549;SDS011;67273;52.914;-0.982;2023-04-05T08:10:43;3.05;;;2.08;;
53549;SDS011;67273;52.914;-0.982;2023-04-05T08:13:09;2.85;;;1.90;;
53549;SDS011;67273;52.914;-0.982;2023-04-05T08:15:35;2.30;;;1.60;;
53549;SDS011;67273;52.914;-0.982;2023-04-05T08:18:01;3.13;;;1.98;;
53549;SDS011;67273;52.914;-0.982;2023-04-05T08:20:27;3.22;;;2.10;;
53549;SDS011;67273;52.914;-0.982;2023-04-05T08:22:52;3.72;;;2.20;;
53549;SDS011;67273;52.914;-0.982;2023-04-05T08:25:19;3.15;;;1.90;;
53549;SDS011;67273;52.914;-0.982;2023-04-05T08:27:45;3.00;;;2.00;;
53549;SDS011;67273;52.914;-0.982;2023-04-05T08:30:11;2.75;;;2.03;;
53549;SDS011;67273;52.914;-0.982;2023-04-05T08:32:37;2.78;;;1.95;;
53549;SDS011;67273;52.914;-0.982;2023-04-05T08:35:03;3.15;;;1.90;;
53549;SDS011;67273;52.914;-0.982;2023-04-05T08:37:33;3.53;;;1.90;;
53549;SDS011;67273;52.914;-0.982;2023-04-05T08:40:01;3.58;;;1.80;;
53549;SDS011;67273;52.914;-0.982;2023-04-05T08:42:31;2.70;;;1.77;;
53549;SDS011;67273;52.914;-0.982;2023-04-05T08:45:01;2.90;;;1.60;;
53549;SDS011;67273;52.914;-0.982;2023-04-05T08:47:28;2.00;;;1.60;;
53549;SDS011;67273;52.914;-0.982;2023-04-05T08:49:56;2.92;;;1.80;;
53549;SDS011;67273;52.914;-0.982;2023-04-05T08:52:22;2.92;;;1.95;;
53549;SDS011;67273;52.914;-0.982;2023-04-05T08:54:49;2.92;;;1.90;;
53549;SDS011;67273;52.914;-0.982;2023-04-05T08:57:20;2.22;;;1.60;;
53549;SDS011;67273;52.914;-0.982;2023-04-05T08:59:51;3.15;;;1.60;;
53549;SDS011;67273;52.914;-0.982;2023-04-05T09:02:20;3.10;;;1.85;;
53549;SDS011;67273;52.914;-0.982;2023-04-05T09:04:47;2.67;;;1.83;;
53549;SDS011;67273;52.914;-0.982;2023-04-05T09:07:14;2.90;;;1.70;;
53549;SDS011;67273;52.914;-0.982;2023-04-05T09:09:43;3.30;;;2.10;;
53549;SDS011;67273;52.914;-0.982;2023-04-05T09:12:13;3.13;;;1.80;;
53549;SDS011;67273;52.914;-0.982;2023-04-05T09:14:39;4.03;;;2.00;;
53549;SDS011;67273;52.914;-0.982;2023-04-05T09:17:07;4.60;;;1.75;;
53549;SDS011;67273;52.914;-0.982;2023-04-05T09:19:33;3.22;;;1.73;;
53549;SDS011;67273;52.914;-0.982;2023-04-05T09:21:59;2.75;;;1.75;;
53549;SDS011;67273;52.914;-0.982;2023-04-05T09:24:30;4.00;;;1.60;;
53549;SDS011;67273;52.914;-0.982;2023-04-05T09:27:03;2.67;;;1.85;;
53549;SDS011;67273;52.914;-0.982;2023-04-05T09:29:30;3.20;;;1.95;;
53549;SDS011;67273;52.914;-0.982;2023-04-05T09:31:57;2.65;;;1.60;;
53549;SDS011;67273;52.914;-0.982;2023-04-05T09:34:26;3.42;;;2.10;;
53549;SDS011;67273;52.914;-0.982;2023-04-05T09:36:53;3.25;;;1.88;;
53549;SDS011;67273;52.914;-0.982;2023-04-05T09:39:19;3.00;;;1.92;;
53549;SDS011;67273;52.914;-0.982;2023-04-05T09:42:02;4.05;;;2.00;;
53549;SDS011;67273;52.914;-0.982;2023-04-05T09:44:36;3.70;;;1.83;;
53549;SDS011;67273;52.914;-0.982;2023-04-05T09:47:14;2.63;;;1.70;;
53549;SDS011;67273;52.914;-0.982;2023-04-05T09:49:42;2.75;;;1.63;;
53549;SDS011;67273;52.914;-0.982;2023-04-05T09:52:16;2.80;;;1.63;;
53549;SDS011;67273;52.914;-0.982;2023-04-05T09:54:43;2.20;;;1.85;;
53549;SDS011;67273;52.914;-0.982;2023-04-05T09:57:09;2.70;;;1.70;;
53549;SDS011;67273;52.914;-0.982;2023-04-05T09:59:35;2.85;;;1.70;;
53549;SDS011;67273;52.914;-0.982;2023-04-05T10:02:03;2.20;;;1.60;;
53549;SDS011;67273;52.914;-0.982;2023-04-05T10:04:37;3.22;;;1.70;;
53549;SDS011;67273;52.914;-0.982;2023-04-05T10:07:05;3.08;;;1.77;;
53549;SDS011;67273;52.914;-0.982;2023-04-05T10:09:31;2.50;;;1.70;;
53549;SDS011;67273;52.914;-0.982;2023-04-05T10:11:57;2.50;;;1.80;;
53549;SDS011;67273;52.914;-0.982;2023-04-05T10:14:25;3.38;;;1.92;;
53549;SDS011;67273;52.914;-0.982;2023-04-05T10:16:52;2.22;;;1.70;;
53549;SDS011;67273;52.914;-0.982;2023-04-05T10:19:28;3.00;;;1.80;;
53549;SDS011;67273;52.914;-0.982;2023-04-05T10:22:01;2.42;;;1.80;;
53549;SDS011;67273;52.914;-0.982;2023-04-05T10:24:31;2.72;;;1.70;;
53549;SDS011;67273;52.914;-0.982;2023-04-05T10:29:29;2.13;;;1.50;;
53549;SDS011;67273;52.914;-0.982;2023-04-05T10:32:04;2.03;;;1.67;;
53549;SDS011;67273;52.914;-0.982;2023-04-05T10:34:39;2.78;;;1.80;;
53549;SDS011;67273;52.914;-0.982;2023-04-05T10:37:10;1.88;;;1.48;;
53549;SDS011;67273;52.914;-0.982;2023-04-05T10:39:48;2.50;;;1.75;;
53549;SDS011;67273;52.914;-0.982;2023-04-05T10:42:19;2.47;;;1.60;;
53549;SDS011;67273;52.914;-0.982;2023-04-05T10:44:51;2.05;;;1.50;;
53549;SDS011;67273;52.914;-0.982;2023-04-05T10:47:19;2.25;;;1.60;;
53549;SDS011;67273;52.914;-0.982;2023-04-05T10:49:50;3.38;;;1.70;;
53549;SDS011;67273;52.914;-0.982;2023-04-05T10:52:20;2.30;;;1.40;;
53549;SDS011;67273;52.914;-0.982;2023-04-05T10:54:48;2.00;;;1.50;;
53549;SDS011;67273;52.914;-0.982;2023-04-05T10:57:14;2.20;;;1.50;;
53549;SDS011;67273;52.914;-0.982;2023-04-05T10:59:44;2.38;;;1.60;;
53549;SDS011;67273;52.914;-0.982;2023-04-05T11:02:11;2.75;;;1.60;;
53549;SDS011;67273;52.914;-0.982;2023-04-05T11:04:38;2.22;;;1.50;;
53549;SDS011;67273;52.914;-0.982;2023-04-05T11:07:09;2.13;;;1.33;;
53549;SDS011;67273;52.914;-0.982;2023-04-05T11:09:36;2.45;;;1.70;;
53549;SDS011;67273;52.914;-0.982;2023-04-05T11:12:06;1.83;;;1.40;;
53549;SDS011;67273;52.914;-0.982;2023-04-05T11:14:34;2.35;;;1.50;;
53549;SDS011;67273;52.914;-0.982;2023-04-05T11:17:00;2.33;;;1.65;;
53549;SDS011;67273;52.914;-0.982;2023-04-05T11:22:23;2.35;;;1.80;;
53549;SDS011;67273;52.914;-0.982;2023-04-05T11:24:51;2.65;;;1.90;;
53549;SDS011;67273;52.914;-0.982;2023-04-05T11:27:24;2.53;;;1.80;;
53549;SDS011;67273;52.914;-0.982;2023-04-05T11:29:54;2.47;;;1.60;;
53549;SDS011;67273;52.914;-0.982;2023-04-05T11:32:20;3.20;;;1.50;;
53549;SDS011;67273;52.914;-0.982;2023-04-05T11:34:56;2.90;;;1.58;;
53549;SDS011;67273;52.914;-0.982;2023-04-05T11:40:23;2.65;;;2.03;;
53549;SDS011;67273;52.914;-0.982;2023-04-05T11:42:58;2.22;;;1.55;;
53549;SDS011;67273;52.914;-0.982;2023-04-05T11:45:25;3.00;;;1.80;;
53549;SDS011;67273;52.914;-0.982;2023-04-05T11:47:51;2.00;;;1.48;;
53549;SDS011;67273;52.914;-0.982;2023-04-05T11:50:17;2.20;;;1.77;;
53549;SDS011;67273;52.914;-0.982;2023-04-05T11:52:43;3.67;;;2.00;;
53549;SDS011;67273;52.914;-0.982;2023-04-05T11:55:08;2.45;;;1.73;;
53549;SDS011;67273;52.914;-0.982;2023-04-05T11:57:35;2.35;;;1.73;;
53549;SDS011;67273;52.914;-0.982;2023-04-05T12:00:03;2.30;;;1.60;;
53549;SDS011;67273;52.914;-0.982;2023-04-05T12:02:36;2.95;;;1.73;;
53549;SDS011;67273;52.914;-0.982;2023-04-05T12:05:08;2.25;;;1.60;;
53549;SDS011;67273;52.914;-0.982;2023-04-05T12:07:34;1.80;;;1.60;;
53549;SDS011;67273;52.914;-0.982;2023-04-05T12:10:02;2.25;;;1.50;;
53549;SDS011;67273;52.914;-0.982;2023-04-05T12:12:33;2.05;;;1.45;;
53549;SDS011;67273;52.914;-0.982;2023-04-05T12:15:00;2.08;;;1.63;;
53549;SDS011;67273;52.914;-0.982;2023-04-05T12:20:18;3.05;;;1.55;;
53549;SDS011;67273;52.914;-0.982;2023-04-05T12:22:47;2.80;;;1.50;;
53549;SDS011;67273;52.914;-0.982;2023-04-05T12:25:14;2.17;;;1.63;;
53549;SDS011;67273;52.914;-0.982;2023-04-05T12:27:40;2.17;;;1.55;;
53549;SDS011;67273;52.914;-0.982;2023-04-05T12:30:07;2.83;;;1.67;;
53549;SDS011;67273;52.914;-0.982;2023-04-05T12:32:41;3.05;;;1.70;;
53549;SDS011;67273;52.914;-0.982;2023-04-05T12:35:11;2.45;;;1.60;;
53549;SDS011;67273;52.914;-0.982;2023-04-05T12:37:38;2.17;;;1.50;;
53549;SDS011;67273;52.914;-0.982;2023-04-05T12:40:05;2.00;;;1.55;;
53549;SDS011;67273;52.914;-0.982;2023-04-05T12:42:32;2.45;;;1.67;;
53549;SDS011;67273;52.914;-0.982;2023-04-05T12:45:03;1.98;;;1.60;;
53549;SDS011;67273;52.914;-0.982;2023-04-05T12:47:31;1.77;;;1.50;;
53549;SDS011;67273;52.914;-0.982;2023-04-05T12:50:08;2.20;;;1.48;;
53549;SDS011;67273;52.914;-0.982;2023-04-05T12:52:36;2.97;;;1.70;;
53549;SDS011;67273;52.914;-0.982;2023-04-05T12:55:02;2.97;;;1.70;;
53549;SDS011;67273;52.914;-0.982;2023-04-05T12:57:29;1.92;;;1.45;;
53549;SDS011;67273;52.914;-0.982;2023-04-05T12:59:56;2.25;;;1.60;;
53549;SDS011;67273;52.914;-0.982;2023-04-05T13:02:22;3.47;;;1.70;;
53549;SDS011;67273;52.914;-0.982;2023-04-05T13:04:47;1.77;;;1.48;;
53549;SDS011;67273;52.914;-0.982;2023-04-05T13:07:17;2.17;;;1.67;;
53549;SDS011;67273;52.914;-0.982;2023-04-05T13:09:45;1.50;;;1.40;;
53549;SDS011;67273;52.914;-0.982;2023-04-05T13:12:11;2.75;;;1.48;;
53549;SDS011;67273;52.914;-0.982;2023-04-05T13:14:37;2.85;;;1.85;;
53549;SDS011;67273;52.914;-0.982;2023-04-05T13:17:05;1.90;;;1.60;;
53549;SDS011;67273;52.914;-0.982;2023-04-05T13:19:31;2.20;;;1.73;;
53549;SDS011;67273;52.914;-0.982;2023-04-05T13:21:59;2.40;;;1.40;;
53549;SDS011;67273;52.914;-0.982;2023-04-05T13:24:27;2.00;;;1.60;;
53549;SDS011;67273;52.914;-0.982;2023-04-05T13:26:53;2.15;;;1.52;;
53549;SDS011;67273;52.914;-0.982;2023-04-05T13:29:19;1.55;;;1.45;;
53549;SDS011;67273;52.914;-0.982;2023-04-05T13:31:45;1.83;;;1.40;;
53549;SDS011;67273;52.914;-0.982;2023-04-05T13:34:10;1.92;;;1.60;;
53549;SDS011;67273;52.914;-0.982;2023-04-05T13:36:37;1.55;;;1.40;;
53549;SDS011;67273;52.914;-0.982;2023-04-05T13:39:02;2.38;;;1.45;;
53549;SDS011;67273;52.914;-0.982;2023-04-05T13:41:29;2.13;;;1.50;;
53549;SDS011;67273;52.914;-0.982;2023-04-05T13:43:56;2.10;;;1.70;;
53549;SDS011;67273;52.914;-0.982;2023-04-05T13:46:22;1.63;;;1.30;;
53549;SDS011;67273;52.914;-0.982;2023-04-05T13:48:47;1.60;;;1.50;;
53549;SDS011;67273;52.914;-0.982;2023-04-05T13:51:13;1.77;;;1.30;;
53549;SDS011;67273;52.914;-0.982;2023-04-05T13:53:39;1.35;;;1.25;;
53549;SDS011;67273;52.914;-0.982;2023-04-05T13:56:06;1.92;;;1.42;;
53549;SDS011;67273;52.914;-0.982;2023-04-05T13:58:33;1.63;;;1.30;;
53549;SDS011;67273;52.914;-0.982;2023-04-05T14:00:59;1.52;;;1.42;;
53549;SDS011;67273;52.914;-0.982;2023-04-05T14:03:25;1.80;;;1.45;;
53549;SDS011;67273;52.914;-0.982;2023-04-05T14:05:51;1.33;;;1.23;;
53549;SDS011;67273;52.914;-0.982;2023-04-05T14:08:17;1.67;;;1.42;;
53549;SDS011;67273;52.914;-0.982;2023-04-05T14:10:43;1.50;;;1.40;;
53549;SDS011;67273;52.914;-0.982;2023-04-05T14:13:08;1.40;;;1.20;;
53549;SDS011;67273;52.914;-0.982;2023-04-05T14:15:37;1.45;;;1.30;;
53549;SDS011;67273;52.914;-0.982;2023-04-05T14:18:04;1.73;;;1.20;;
53549;SDS011;67273;52.914;-0.982;2023-04-05T14:20:30;2.40;;;1.45;;
53549;SDS011;67273;52.914;-0.982;2023-04-05T14:22:57;1.50;;;1.30;;
53549;SDS011;67273;52.914;-0.982;2023-04-05T14:25:25;1.45;;;1.30;;
53549;SDS011;67273;52.914;-0.982;2023-04-05T14:27:51;1.67;;;1.33;;
53549;SDS011;67273;52.914;-0.982;2023-04-05T14:30:17;1.42;;;1.27;;
53549;SDS011;67273;52.914;-0.982;2023-04-05T14:32:44;1.65;;;1.33;;
53549;SDS011;67273;52.914;-0.982;2023-04-05T14:35:10;1.85;;;1.40;;
53549;SDS011;67273;52.914;-0.982;2023-04-05T14:37:35;1.30;;;1.20;;
53549;SDS011;67273;52.914;-0.982;2023-04-05T14:40:01;1.48;;;1.30;;
53549;SDS011;67273;52.914;-0.982;2023-04-05T14:42:28;2.40;;;1.40;;
53549;SDS011;67273;52.914;-0.982;2023-04-05T14:44:54;1.55;;;1.20;;
53549;SDS011;67273;52.914;-0.982;2023-04-05T14:47:19;1.30;;;1.20;;
53549;SDS011;67273;52.914;-0.982;2023-04-05T14:49:47;1.30;;;1.20;;
53549;SDS011;67273;52.914;-0.982;2023-04-05T14:52:12;1.48;;;1.30;;
53549;SDS011;67273;52.914;-0.982;2023-04-05T14:54:38;1.67;;;1.10;;
53549;SDS011;67273;52.914;-0.982;2023-04-05T14:57:04;1.30;;;1.20;;